sensor_id;sensor_type;location;lat;lon;timestamp;P1;durP1;ratioP1;P2;durP2;ratioP2
2874;SDS011;1445;52.600;13.328;2022-09-09T00:00:51;17.05;;;14.05;;
2874;SDS011;1445;52.600;13.328;2022-09-09T00:03:21;19.15;;;14.07;;
2874;SDS011;1445;52.600;13.328;2022-09-09T00:05:59;17.23;;;13.95;;
2874;SDS011;1445;52.600;13.328;2022-09-09T00:08:37;19.75;;;13.90;;
2874;SDS011;1445;52.600;13.328;2022-09-09T00:11:04;15.90;;;12.50;;
2874;SDS011;1445;52.600;13.328;2022-09-09T00:13:33;14.50;;;11.77;;
2874;SDS011;1445;52.600;13.328;2022-09-09T00:16:17;13.95;;;12.10;;
2874;SDS011;1445;52.600;13.328;2022-09-09T00:21:15;13.82;;;11.60;;
2874;SDS011;1445;52.600;13.328;2022-09-09T00:23:44;12.85;;;10.88;;
2874;SDS011;1445;52.600;13.328;2022-09-09T00:26:14;13.50;;;11.32;;
2874;SDS011;1445;52.600;13.328;2022-09-09T00:28:43;14.27;;;12.45;;
2874;SDS011;1445;52.600;13.328;2022-09-09T00:31:15;12.25;;;10.50;;
2874;SDS011;1445;52.600;13.328;2022-09-09T00:33:43;13.50;;;11.63;;
2874;SDS011;1445;52.600;13.328;2022-09-09T00:36:12;13.80;;;11.75;;
2874;SDS011;1445;52.600;13.328;2022-09-09T00:38:45;13.23;;;11.80;;
2874;SDS011;1445;52.600;13.328;2022-09-09T00:41:22;13.88;;;11.63;;
2874;SDS011;1445;52.600;13.328;2022-09-09T00:44:00;14.35;;;11.45;;
2874;SDS011;1445;52.600;13.328;2022-09-09T00:46:30;14.30;;;12.10;;
2874;SDS011;1445;52.600;13.328;2022-09-09T00:52:08;14.38;;;12.07;;
2874;SDS011;1445;52.600;13.328;2022-09-09T00:59:52;14.25;;;12.38;;
2874;SDS011;1445;52.600;13.328;2022-09-09T01:04:47;15.77;;;12.35;;
2874;SDS011;1445;52.600;13.328;2022-09-09T01:07:16;12.93;;;11.40;;
2874;SDS011;1445;52.600;13.328;2022-09-09T01:09:45;14.50;;;12.57;;
2874;SDS011;1445;52.600;13.328;2022-09-09T01:12:17;14.52;;;11.85;;
2874;SDS011;1445;52.600;13.328;2022-09-09T01:14:45;15.27;;;12.35;;
2874;SDS011;1445;52.600;13.328;2022-09-09T01:22:11;18.52;;;13.05;;
2874;SDS011;1445;52.600;13.328;2022-09-09T01:27:17;15.98;;;12.55;;
2874;SDS011;1445;52.600;13.328;2022-09-09T01:29:43;14.05;;;11.50;;
2874;SDS011;1445;52.600;13.328;2022-09-09T01:34:52;15.82;;;12.32;;
2874;SDS011;1445;52.600;13.328;2022-09-09T01:37:18;17.48;;;12.57;;
2874;SDS011;1445;52.600;13.328;2022-09-09T01:39:43;15.70;;;12.60;;
2874;SDS011;1445;52.600;13.328;2022-09-09T01:42:09;15.05;;;12.38;;
2874;SDS011;1445;52.600;13.328;2022-09-09T01:44:36;14.77;;;12.48;;
2874;SDS011;1445;52.600;13.328;2022-09-09T01:47:01;16.45;;;12.52;;
2874;SDS011;1445;52.600;13.328;2022-09-09T01:49:27;15.48;;;12.32;;
2874;SDS011;1445;52.600;13.328;2022-09-09T01:51:53;15.10;;;11.95;;
2874;SDS011;1445;52.600;13.328;2022-09-09T01:54:19;14.02;;;11.63;;
2874;SDS011;1445;52.600;13.328;2022-09-09T02:01:54;13.80;;;11.60;;
2874;SDS011;1445;52.600;13.328;2022-09-09T02:06:48;15.00;;;11.88;;
2874;SDS011;1445;52.600;13.328;2022-09-09T02:09:15;15.75;;;12.18;;
2874;SDS011;1445;52.600;13.328;2022-09-09T02:11:43;14.70;;;11.82;;
2874;SDS011;1445;52.600;13.328;2022-09-09T02:14:13;15.23;;;11.88;;
2874;SDS011;1445;52.600;13.328;2022-09-09T02:16:44;15.45;;;12.70;;
2874;SDS011;1445;52.600;13.328;2022-09-09T02:19:20;13.55;;;11.48;;
2874;SDS011;1445;52.600;13.328;2022-09-09T02:21:52;16.13;;;12.80;;
2874;SDS011;1445;52.600;13.328;2022-09-09T02:24:18;13.90;;;11.57;;
2874;SDS011;1445;52.600;13.328;2022-09-09T02:26:44;14.75;;;11.45;;
2874;SDS011;1445;52.600;13.328;2022-09-09T02:29:22;14.35;;;11.35;;
2874;SDS011;1445;52.600;13.328;2022-09-09T02:31:48;15.30;;;12.32;;
2874;SDS011;1445;52.600;13.328;2022-09-09T02:34:14;14.93;;;11.77;;
2874;SDS011;1445;52.600;13.328;2022-09-09T02:36:41;16.55;;;12.00;;
2874;SDS011;1445;52.600;13.328;2022-09-09T02:39:08;13.55;;;12.00;;
2874;SDS011;1445;52.600;13.328;2022-09-09T02:41:36;14.48;;;11.57;;
2874;SDS011;1445;52.600;13.328;2022-09-09T02:44:05;15.75;;;12.50;;
2874;SDS011;1445;52.600;13.328;2022-09-09T02:46:41;13.73;;;11.77;;
2874;SDS011;1445;52.600;13.328;2022-09-09T02:49:22;12.57;;;10.52;;
2874;SDS011;1445;52.600;13.328;2022-09-09T02:54:41;14.98;;;11.82;;
2874;SDS011;1445;52.600;13.328;2022-09-09T02:59:33;16.73;;;12.05;;
2874;SDS011;1445;52.600;13.328;2022-09-09T03:01:59;14.63;;;11.73;;
2874;SDS011;1445;52.600;13.328;2022-09-09T03:04:24;14.52;;;12.02;;
2874;SDS011;1445;52.600;13.328;2022-09-09T03:06:50;15.23;;;12.00;;
2874;SDS011;1445;52.600;13.328;2022-09-09T03:09:15;15.60;;;11.73;;
2874;SDS011;1445;52.600;13.328;2022-09-09T03:11:40;15.65;;;11.80;;
2874;SDS011;1445;52.600;13.328;2022-09-09T03:14:05;14.75;;;12.55;;
2874;SDS011;1445;52.600;13.328;2022-09-09T03:16:31;18.73;;;12.63;;
2874;SDS011;1445;52.600;13.328;2022-09-09T03:18:58;15.52;;;11.85;;
2874;SDS011;1445;52.600;13.328;2022-09-09T03:21:23;15.93;;;12.05;;
2874;SDS011;1445;52.600;13.328;2022-09-09T03:23:48;14.40;;;11.32;;
2874;SDS011;1445;52.600;13.328;2022-09-09T03:26:13;14.55;;;11.93;;
2874;SDS011;1445;52.600;13.328;2022-09-09T03:28:40;15.55;;;12.35;;
2874;SDS011;1445;52.600;13.328;2022-09-09T03:31:05;15.30;;;12.27;;
2874;SDS011;1445;52.600;13.328;2022-09-09T03:33:31;14.32;;;12.25;;
2874;SDS011;1445;52.600;13.328;2022-09-09T03:35:56;15.63;;;12.32;;
2874;SDS011;1445;52.600;13.328;2022-09-09T03:38:25;13.77;;;11.52;;
2874;SDS011;1445;52.600;13.328;2022-09-09T03:40:51;18.88;;;12.25;;
2874;SDS011;1445;52.600;13.328;2022-09-09T03:43:20;15.05;;;12.60;;
2874;SDS011;1445;52.600;13.328;2022-09-09T03:45:46;15.63;;;12.05;;
2874;SDS011;1445;52.600;13.328;2022-09-09T03:48:14;16.00;;;11.40;;
2874;SDS011;1445;52.600;13.328;2022-09-09T03:50:50;14.50;;;11.95;;
2874;SDS011;1445;52.600;13.328;2022-09-09T03:53:16;16.05;;;12.10;;
2874;SDS011;1445;52.600;13.328;2022-09-09T03:55:45;14.65;;;11.00;;
2874;SDS011;1445;52.600;13.328;2022-09-09T03:58:11;15.52;;;11.27;;
2874;SDS011;1445;52.600;13.328;2022-09-09T04:00:37;12.98;;;10.52;;
2874;SDS011;1445;52.600;13.328;2022-09-09T04:03:07;14.20;;;10.65;;
2874;SDS011;1445;52.600;13.328;2022-09-09T04:05:32;15.00;;;10.32;;
2874;SDS011;1445;52.600;13.328;2022-09-09T04:07:59;13.27;;;10.95;;
2874;SDS011;1445;52.600;13.328;2022-09-09T04:10:24;14.57;;;11.55;;
2874;SDS011;1445;52.600;13.328;2022-09-09T04:12:49;11.90;;;10.40;;
2874;SDS011;1445;52.600;13.328;2022-09-09T04:15:14;11.80;;;10.07;;
2874;SDS011;1445;52.600;13.328;2022-09-09T04:17:40;13.02;;;10.00;;
2874;SDS011;1445;52.600;13.328;2022-09-09T04:20:05;10.40;;;9.30;;
2874;SDS011;1445;52.600;13.328;2022-09-09T04:22:31;11.48;;;9.93;;
2874;SDS011;1445;52.600;13.328;2022-09-09T04:24:57;12.07;;;9.60;;
2874;SDS011;1445;52.600;13.328;2022-09-09T04:27:22;12.40;;;9.85;;
2874;SDS011;1445;52.600;13.328;2022-09-09T04:29:47;13.52;;;10.05;;
2874;SDS011;1445;52.600;13.328;2022-09-09T04:32:12;12.60;;;10.10;;
2874;SDS011;1445;52.600;13.328;2022-09-09T04:34:37;10.38;;;9.20;;
2874;SDS011;1445;52.600;13.328;2022-09-09T04:37:03;13.63;;;9.68;;
2874;SDS011;1445;52.600;13.328;2022-09-09T04:39:28;10.68;;;9.57;;
2874;SDS011;1445;52.600;13.328;2022-09-09T04:41:53;14.80;;;9.40;;
2874;SDS011;1445;52.600;13.328;2022-09-09T04:44:18;11.75;;;8.52;;
2874;SDS011;1445;52.600;13.328;2022-09-09T04:46:44;12.57;;;9.60;;
2874;SDS011;1445;52.600;13.328;2022-09-09T04:49:10;12.63;;;9.23;;
2874;SDS011;1445;52.600;13.328;2022-09-09T04:51:35;12.98;;;9.68;;
2874;SDS011;1445;52.600;13.328;2022-09-09T04:54:00;11.63;;;9.40;;
2874;SDS011;1445;52.600;13.328;2022-09-09T04:56:25;11.10;;;9.43;;
2874;SDS011;1445;52.600;13.328;2022-09-09T04:58:52;11.55;;;9.80;;
2874;SDS011;1445;52.600;13.328;2022-09-09T05:01:20;11.63;;;9.02;;
2874;SDS011;1445;52.600;13.328;2022-09-09T05:03:46;13.52;;;9.23;;
2874;SDS011;1445;52.600;13.328;2022-09-09T05:06:13;13.38;;;9.52;;
2874;SDS011;1445;52.600;13.328;2022-09-09T05:08:39;12.93;;;9.50;;
2874;SDS011;1445;52.600;13.328;2022-09-09T05:11:14;12.30;;;9.52;;
2874;SDS011;1445;52.600;13.328;2022-09-09T05:13:41;13.10;;;9.45;;
2874;SDS011;1445;52.600;13.328;2022-09-09T05:16:06;11.75;;;9.52;;
2874;SDS011;1445;52.600;13.328;2022-09-09T05:18:31;9.70;;;8.70;;
2874;SDS011;1445;52.600;13.328;2022-09-09T05:20:59;10.77;;;8.40;;
2874;SDS011;1445;52.600;13.328;2022-09-09T05:23:25;10.70;;;9.35;;
2874;SDS011;1445;52.600;13.328;2022-09-09T05:25:57;11.00;;;8.95;;
2874;SDS011;1445;52.600;13.328;2022-09-09T05:28:23;10.55;;;8.23;;
2874;SDS011;1445;52.600;13.328;2022-09-09T05:31:10;10.18;;;8.85;;
2874;SDS011;1445;52.600;13.328;2022-09-09T05:33:36;12.48;;;8.38;;
2874;SDS011;1445;52.600;13.328;2022-09-09T05:38:28;9.55;;;7.85;;
2874;SDS011;1445;52.600;13.328;2022-09-09T05:40:54;10.38;;;8.82;;
2874;SDS011;1445;52.600;13.328;2022-09-09T05:43:19;10.38;;;7.25;;
2874;SDS011;1445;52.600;13.328;2022-09-09T05:45:45;10.40;;;8.50;;
2874;SDS011;1445;52.600;13.328;2022-09-09T05:48:12;8.73;;;7.68;;
2874;SDS011;1445;52.600;13.328;2022-09-09T05:50:37;9.18;;;7.78;;
2874;SDS011;1445;52.600;13.328;2022-09-09T05:53:02;10.15;;;7.95;;
2874;SDS011;1445;52.600;13.328;2022-09-09T05:55:28;10.07;;;7.72;;
2874;SDS011;1445;52.600;13.328;2022-09-09T05:57:53;8.75;;;7.30;;
2874;SDS011;1445;52.600;13.328;2022-09-09T06:00:18;8.50;;;7.60;;
2874;SDS011;1445;52.600;13.328;2022-09-09T06:02:49;7.90;;;7.10;;
2874;SDS011;1445;52.600;13.328;2022-09-09T06:05:15;9.20;;;7.07;;
2874;SDS011;1445;52.600;13.328;2022-09-09T06:07:41;8.43;;;7.10;;
2874;SDS011;1445;52.600;13.328;2022-09-09T06:10:07;11.75;;;7.00;;
2874;SDS011;1445;52.600;13.328;2022-09-09T06:12:33;7.88;;;6.80;;
2874;SDS011;1445;52.600;13.328;2022-09-09T06:14:58;7.93;;;6.32;;
2874;SDS011;1445;52.600;13.328;2022-09-09T06:17:23;7.50;;;6.78;;
2874;SDS011;1445;52.600;13.328;2022-09-09T06:19:48;8.90;;;6.97;;
2874;SDS011;1445;52.600;13.328;2022-09-09T06:22:14;7.97;;;6.90;;
2874;SDS011;1445;52.600;13.328;2022-09-09T06:24:39;6.85;;;6.07;;
2874;SDS011;1445;52.600;13.328;2022-09-09T06:27:04;10.77;;;6.05;;
2874;SDS011;1445;52.600;13.328;2022-09-09T06:29:30;9.05;;;6.28;;
2874;SDS011;1445;52.600;13.328;2022-09-09T06:31:55;8.27;;;5.72;;
2874;SDS011;1445;52.600;13.328;2022-09-09T06:34:21;7.30;;;5.97;;
2874;SDS011;1445;52.600;13.328;2022-09-09T06:36:46;10.15;;;6.10;;
2874;SDS011;1445;52.600;13.328;2022-09-09T06:39:11;8.50;;;5.95;;
2874;SDS011;1445;52.600;13.328;2022-09-09T06:41:38;6.43;;;5.50;;
2874;SDS011;1445;52.600;13.328;2022-09-09T06:44:03;6.43;;;4.43;;
2874;SDS011;1445;52.600;13.328;2022-09-09T06:46:30;6.45;;;4.50;;
2874;SDS011;1445;52.600;13.328;2022-09-09T06:48:57;6.10;;;4.53;;
2874;SDS011;1445;52.600;13.328;2022-09-09T06:51:25;6.13;;;4.40;;
2874;SDS011;1445;52.600;13.328;2022-09-09T06:53:51;5.75;;;4.95;;
2874;SDS011;1445;52.600;13.328;2022-09-09T06:56:18;7.15;;;5.05;;
2874;SDS011;1445;52.600;13.328;2022-09-09T06:58:44;7.82;;;4.75;;
2874;SDS011;1445;52.600;13.328;2022-09-09T07:01:12;8.90;;;4.68;;
2874;SDS011;1445;52.600;13.328;2022-09-09T07:03:38;8.13;;;4.80;;
2874;SDS011;1445;52.600;13.328;2022-09-09T07:06:03;5.97;;;4.30;;
2874;SDS011;1445;52.600;13.328;2022-09-09T07:08:29;7.55;;;4.18;;
2874;SDS011;1445;52.600;13.328;2022-09-09T07:11:01;6.03;;;3.95;;
2874;SDS011;1445;52.600;13.328;2022-09-09T07:13:26;4.90;;;3.85;;
2874;SDS011;1445;52.600;13.328;2022-09-09T07:15:52;4.57;;;3.60;;
2874;SDS011;1445;52.600;13.328;2022-09-09T07:18:17;5.20;;;4.10;;
2874;SDS011;1445;52.600;13.328;2022-09-09T07:20:43;7.95;;;4.07;;
2874;SDS011;1445;52.600;13.328;2022-09-09T07:23:08;5.05;;;3.40;;
2874;SDS011;1445;52.600;13.328;2022-09-09T07:25:33;5.20;;;3.40;;
2874;SDS011;1445;52.600;13.328;2022-09-09T07:27:58;5.70;;;3.30;;
2874;SDS011;1445;52.600;13.328;2022-09-09T07:30:24;5.65;;;3.50;;
2874;SDS011;1445;52.600;13.328;2022-09-09T07:32:50;6.38;;;3.30;;
2874;SDS011;1445;52.600;13.328;2022-09-09T07:35:15;4.20;;;3.13;;
2874;SDS011;1445;52.600;13.328;2022-09-09T07:37:41;5.67;;;3.13;;
2874;SDS011;1445;52.600;13.328;2022-09-09T07:40:06;5.80;;;2.85;;
2874;SDS011;1445;52.600;13.328;2022-09-09T07:42:31;6.22;;;2.90;;
2874;SDS011;1445;52.600;13.328;2022-09-09T07:44:56;6.28;;;2.92;;
2874;SDS011;1445;52.600;13.328;2022-09-09T07:47:22;4.00;;;2.60;;
2874;SDS011;1445;52.600;13.328;2022-09-09T07:49:49;6.85;;;2.72;;
2874;SDS011;1445;52.600;13.328;2022-09-09T07:52:15;4.03;;;2.40;;
2874;SDS011;1445;52.600;13.328;2022-09-09T07:54:41;3.63;;;2.33;;
2874;SDS011;1445;52.600;13.328;2022-09-09T07:57:06;6.13;;;2.67;;
2874;SDS011;1445;52.600;13.328;2022-09-09T07:59:32;5.25;;;2.60;;
2874;SDS011;1445;52.600;13.328;2022-09-09T08:01:57;4.40;;;2.30;;
2874;SDS011;1445;52.600;13.328;2022-09-09T08:04:23;4.20;;;2.38;;
2874;SDS011;1445;52.600;13.328;2022-09-09T08:06:50;3.88;;;2.28;;
2874;SDS011;1445;52.600;13.328;2022-09-09T08:09:18;6.45;;;3.03;;
2874;SDS011;1445;52.600;13.328;2022-09-09T08:11:43;4.45;;;2.72;;
2874;SDS011;1445;52.600;13.328;2022-09-09T08:14:09;4.10;;;2.20;;
2874;SDS011;1445;52.600;13.328;2022-09-09T08:16:36;2.85;;;1.90;;
2874;SDS011;1445;52.600;13.328;2022-09-09T08:19:01;4.95;;;2.08;;
2874;SDS011;1445;52.600;13.328;2022-09-09T08:21:28;5.05;;;2.30;;
2874;SDS011;1445;52.600;13.328;2022-09-09T08:23:54;4.72;;;2.40;;
2874;SDS011;1445;52.600;13.328;2022-09-09T08:26:20;3.00;;;1.92;;
2874;SDS011;1445;52.600;13.328;2022-09-09T08:28:47;4.57;;;2.38;;
2874;SDS011;1445;52.600;13.328;2022-09-09T08:31:14;5.03;;;2.10;;
2874;SDS011;1445;52.600;13.328;2022-09-09T08:33:40;3.20;;;1.73;;
2874;SDS011;1445;52.600;13.328;2022-09-09T08:36:06;3.63;;;1.75;;
2874;SDS011;1445;52.600;13.328;2022-09-09T08:38:33;5.68;;;1.80;;
2874;SDS011;1445;52.600;13.328;2022-09-09T08:41:03;3.70;;;1.95;;
2874;SDS011;1445;52.600;13.328;2022-09-09T08:43:31;4.55;;;2.13;;
2874;SDS011;1445;52.600;13.328;2022-09-09T08:46:03;4.07;;;1.67;;
2874;SDS011;1445;52.600;13.328;2022-09-09T08:49:19;3.05;;;1.50;;
2874;SDS011;1445;52.600;13.328;2022-09-09T08:51:17;3.90;;;1.80;;
2874;SDS011;1445;52.600;13.328;2022-09-09T08:53:44;3.15;;;1.83;;
2874;SDS011;1445;52.600;13.328;2022-09-09T08:56:12;2.72;;;1.50;;
2874;SDS011;1445;52.600;13.328;2022-09-09T08:58:48;2.83;;;1.63;;
2874;SDS011;1445;52.600;13.328;2022-09-09T09:11:39;3.42;;;1.60;;
2874;SDS011;1445;52.600;13.328;2022-09-09T09:18:59;3.17;;;1.58;;
2874;SDS011;1445;52.600;13.328;2022-09-09T09:23:57;2.50;;;1.70;;
2874;SDS011;1445;52.600;13.328;2022-09-09T09:26:44;2.90;;;1.50;;
2874;SDS011;1445;52.600;13.328;2022-09-09T09:29:10;4.05;;;2.08;;
2874;SDS011;1445;52.600;13.328;2022-09-09T09:31:36;3.05;;;1.60;;
2874;SDS011;1445;52.600;13.328;2022-09-09T09:34:02;3.50;;;1.75;;
2874;SDS011;1445;52.600;13.328;2022-09-09T09:36:43;2.67;;;1.70;;
2874;SDS011;1445;52.600;13.328;2022-09-09T09:39:21;4.03;;;1.75;;
2874;SDS011;1445;52.600;13.328;2022-09-09T09:41:47;2.85;;;1.75;;
2874;SDS011;1445;52.600;13.328;2022-09-09T09:47:08;2.45;;;1.45;;
2874;SDS011;1445;52.600;13.328;2022-09-09T09:49:33;4.05;;;1.70;;
2874;SDS011;1445;52.600;13.328;2022-09-09T09:52:02;3.80;;;1.90;;
2874;SDS011;1445;52.600;13.328;2022-09-09T09:54:29;4.75;;;2.05;;
2874;SDS011;1445;52.600;13.328;2022-09-09T09:56:55;2.20;;;1.80;;
2874;SDS011;1445;52.600;13.328;2022-09-09T10:01:48;3.63;;;1.70;;
2874;SDS011;1445;52.600;13.328;2022-09-09T10:06:40;2.70;;;1.60;;
2874;SDS011;1445;52.600;13.328;2022-09-09T10:12:02;4.07;;;1.45;;
2874;SDS011;1445;52.600;13.328;2022-09-09T10:22:36;5.13;;;1.63;;
2874;SDS011;1445;52.600;13.328;2022-09-09T10:30:23;2.13;;;1.17;;
2874;SDS011;1445;52.600;13.328;2022-09-09T10:35:30;3.65;;;1.35;;
2874;SDS011;1445;52.600;13.328;2022-09-09T10:48:19;3.90;;;1.33;;
2874;SDS011;1445;52.600;13.328;2022-09-09T10:56:07;2.80;;;1.20;;
2874;SDS011;1445;52.600;13.328;2022-09-09T10:58:36;2.30;;;1.20;;
2874;SDS011;1445;52.600;13.328;2022-09-09T11:01:14;4.25;;;1.77;;
2874;SDS011;1445;52.600;13.328;2022-09-09T11:03:41;4.30;;;1.60;;
2874;SDS011;1445;52.600;13.328;2022-09-09T11:06:14;2.13;;;1.00;;
2874;SDS011;1445;52.600;13.328;2022-09-09T11:08:41;3.05;;;1.08;;
2874;SDS011;1445;52.600;13.328;2022-09-09T11:11:21;1.83;;;1.13;;
2874;SDS011;1445;52.600;13.328;2022-09-09T11:16:35;2.78;;;1.17;;
2874;SDS011;1445;52.600;13.328;2022-09-09T11:19:11;2.63;;;1.20;;
2874;SDS011;1445;52.600;13.328;2022-09-09T11:21:40;2.72;;;1.00;;
2874;SDS011;1445;52.600;13.328;2022-09-09T11:24:10;3.20;;;1.00;;
2874;SDS011;1445;52.600;13.328;2022-09-09T11:26:39;2.60;;;1.15;;
2874;SDS011;1445;52.600;13.328;2022-09-09T11:29:25;3.38;;;1.00;;
2874;SDS011;1445;52.600;13.328;2022-09-09T11:36:56;2.55;;;1.17;;
2874;SDS011;1445;52.600;13.328;2022-09-09T11:44:38;1.88;;;1.08;;
2874;SDS011;1445;52.600;13.328;2022-09-09T11:47:15;2.65;;;1.10;;
2874;SDS011;1445;52.600;13.328;2022-09-09T11:49:41;1.40;;;1.10;;
2874;SDS011;1445;52.600;13.328;2022-09-09T11:52:36;2.60;;;1.10;;
2874;SDS011;1445;52.600;13.328;2022-09-09T11:54:55;2.35;;;1.10;;
2874;SDS011;1445;52.600;13.328;2022-09-09T11:57:25;1.83;;;0.82;;
2874;SDS011;1445;52.600;13.328;2022-09-09T11:59:51;3.53;;;1.88;;
2874;SDS011;1445;52.600;13.328;2022-09-09T12:02:24;2.67;;;1.30;;
2874;SDS011;1445;52.600;13.328;2022-09-09T12:04:54;2.55;;;1.00;;
2874;SDS011;1445;52.600;13.328;2022-09-09T12:07:34;2.20;;;1.10;;
2874;SDS011;1445;52.600;13.328;2022-09-09T12:10:03;1.92;;;1.10;;
2874;SDS011;1445;52.600;13.328;2022-09-09T12:12:30;4.13;;;1.15;;
2874;SDS011;1445;52.600;13.328;2022-09-09T12:15:01;2.70;;;1.10;;
2874;SDS011;1445;52.600;13.328;2022-09-09T12:17:27;2.33;;;0.88;;
2874;SDS011;1445;52.600;13.328;2022-09-09T12:20:08;3.20;;;1.00;;
2874;SDS011;1445;52.600;13.328;2022-09-09T12:28:00;2.55;;;1.30;;
2874;SDS011;1445;52.600;13.328;2022-09-09T12:30:32;4.15;;;1.05;;
2874;SDS011;1445;52.600;13.328;2022-09-09T12:33:06;2.53;;;0.87;;
2874;SDS011;1445;52.600;13.328;2022-09-09T12:35:33;2.70;;;1.08;;
2874;SDS011;1445;52.600;13.328;2022-09-09T12:37:59;3.17;;;1.02;;
2874;SDS011;1445;52.600;13.328;2022-09-09T12:40:29;3.65;;;1.20;;
2874;SDS011;1445;52.600;13.328;2022-09-09T12:42:54;2.70;;;0.95;;
2874;SDS011;1445;52.600;13.328;2022-09-09T12:45:26;2.47;;;1.10;;
2874;SDS011;1445;52.600;13.328;2022-09-09T12:50:21;3.65;;;1.00;;
2874;SDS011;1445;52.600;13.328;2022-09-09T12:52:48;2.55;;;0.98;;
2874;SDS011;1445;52.600;13.328;2022-09-09T12:55:21;2.88;;;1.20;;
2874;SDS011;1445;52.600;13.328;2022-09-09T12:57:50;2.90;;;1.40;;
2874;SDS011;1445;52.600;13.328;2022-09-09T13:00:17;4.55;;;1.00;;
2874;SDS011;1445;52.600;13.328;2022-09-09T13:02:47;3.20;;;0.90;;
2874;SDS011;1445;52.600;13.328;2022-09-09T13:05:20;3.03;;;1.20;;
2874;SDS011;1445;52.600;13.328;2022-09-09T13:07:46;2.40;;;0.90;;
2874;SDS011;1445;52.600;13.328;2022-09-09T13:10:12;2.90;;;1.30;;
2874;SDS011;1445;52.600;13.328;2022-09-09T13:12:38;2.38;;;1.10;;
2874;SDS011;1445;52.600;13.328;2022-09-09T13:15:04;4.25;;;1.20;;
2874;SDS011;1445;52.600;13.328;2022-09-09T13:17:34;3.53;;;1.48;;
2874;SDS011;1445;52.600;13.328;2022-09-09T13:20:00;2.90;;;0.88;;
2874;SDS011;1445;52.600;13.328;2022-09-09T13:22:31;1.70;;;1.00;;
2874;SDS011;1445;52.600;13.328;2022-09-09T13:25:20;3.30;;;1.05;;
2874;SDS011;1445;52.600;13.328;2022-09-09T13:27:57;2.33;;;0.95;;
2874;SDS011;1445;52.600;13.328;2022-09-09T13:30:36;2.78;;;0.95;;
2874;SDS011;1445;52.600;13.328;2022-09-09T13:35:31;2.85;;;1.13;;
2874;SDS011;1445;52.600;13.328;2022-09-09T13:37:57;3.33;;;1.05;;
2874;SDS011;1445;52.600;13.328;2022-09-09T13:40:23;3.38;;;0.98;;
2874;SDS011;1445;52.600;13.328;2022-09-09T13:42:51;1.77;;;0.88;;
2874;SDS011;1445;52.600;13.328;2022-09-09T13:45:18;3.80;;;0.93;;
2874;SDS011;1445;52.600;13.328;2022-09-09T13:47:45;3.75;;;0.90;;
2874;SDS011;1445;52.600;13.328;2022-09-09T13:50:20;2.92;;;1.00;;
2874;SDS011;1445;52.600;13.328;2022-09-09T13:52:46;3.67;;;1.00;;
2874;SDS011;1445;52.600;13.328;2022-09-09T13:55:12;4.25;;;1.10;;
2874;SDS011;1445;52.600;13.328;2022-09-09T13:57:37;1.70;;;0.80;;
2874;SDS011;1445;52.600;13.328;2022-09-09T14:00:03;1.65;;;0.98;;
2874;SDS011;1445;52.600;13.328;2022-09-09T14:02:28;3.38;;;1.00;;
2874;SDS011;1445;52.600;13.328;2022-09-09T14:04:53;1.88;;;0.77;;
2874;SDS011;1445;52.600;13.328;2022-09-09T14:07:20;2.65;;;0.88;;
2874;SDS011;1445;52.600;13.328;2022-09-09T14:09:46;1.73;;;1.00;;
2874;SDS011;1445;52.600;13.328;2022-09-09T14:12:14;2.88;;;1.23;;
2874;SDS011;1445;52.600;13.328;2022-09-09T14:14:40;2.78;;;1.27;;
2874;SDS011;1445;52.600;13.328;2022-09-09T14:17:07;3.13;;;1.30;;
2874;SDS011;1445;52.600;13.328;2022-09-09T14:19:32;3.13;;;1.38;;
2874;SDS011;1445;52.600;13.328;2022-09-09T14:21:57;3.10;;;1.00;;
2874;SDS011;1445;52.600;13.328;2022-09-09T14:24:22;2.88;;;0.85;;
2874;SDS011;1445;52.600;13.328;2022-09-09T14:26:48;2.47;;;0.90;;
2874;SDS011;1445;52.600;13.328;2022-09-09T14:29:13;2.28;;;1.00;;
2874;SDS011;1445;52.600;13.328;2022-09-09T14:31:39;3.17;;;1.10;;
2874;SDS011;1445;52.600;13.328;2022-09-09T14:34:04;2.00;;;0.90;;
2874;SDS011;1445;52.600;13.328;2022-09-09T14:36:29;2.80;;;0.90;;
2874;SDS011;1445;52.600;13.328;2022-09-09T14:38:55;1.13;;;0.63;;
2874;SDS011;1445;52.600;13.328;2022-09-09T14:41:20;3.75;;;0.93;;
2874;SDS011;1445;52.600;13.328;2022-09-09T14:43:47;2.47;;;0.93;;
2874;SDS011;1445;52.600;13.328;2022-09-09T14:46:16;2.53;;;0.93;;
2874;SDS011;1445;52.600;13.328;2022-09-09T14:48:42;2.20;;;1.10;;
2874;SDS011;1445;52.600;13.328;2022-09-09T14:51:19;2.15;;;1.00;;
2874;SDS011;1445;52.600;13.328;2022-09-09T14:53:45;3.83;;;1.10;;
2874;SDS011;1445;52.600;13.328;2022-09-09T14:56:11;3.25;;;1.20;;
2874;SDS011;1445;52.600;13.328;2022-09-09T14:58:37;2.45;;;0.82;;
2874;SDS011;1445;52.600;13.328;2022-09-09T15:01:06;2.55;;;1.00;;
2874;SDS011;1445;52.600;13.328;2022-09-09T15:03:32;3.05;;;0.90;;
2874;SDS011;1445;52.600;13.328;2022-09-09T15:05:57;5.25;;;1.27;;
2874;SDS011;1445;52.600;13.328;2022-09-09T15:08:23;4.97;;;1.30;;
2874;SDS011;1445;52.600;13.328;2022-09-09T15:10:48;2.60;;;1.10;;
2874;SDS011;1445;52.600;13.328;2022-09-09T15:13:15;3.13;;;1.00;;
2874;SDS011;1445;52.600;13.328;2022-09-09T15:15:42;3.00;;;1.08;;
2874;SDS011;1445;52.600;13.328;2022-09-09T15:18:07;4.47;;;1.30;;
2874;SDS011;1445;52.600;13.328;2022-09-09T15:20:32;2.10;;;1.43;;
2874;SDS011;1445;52.600;13.328;2022-09-09T15:22:57;2.75;;;0.90;;
2874;SDS011;1445;52.600;13.328;2022-09-09T15:25:23;3.80;;;1.15;;
2874;SDS011;1445;52.600;13.328;2022-09-09T15:27:48;3.40;;;1.70;;
2874;SDS011;1445;52.600;13.328;2022-09-09T15:30:13;2.53;;;1.60;;
2874;SDS011;1445;52.600;13.328;2022-09-09T15:32:38;3.63;;;1.38;;
2874;SDS011;1445;52.600;13.328;2022-09-09T15:35:04;2.47;;;1.08;;
2874;SDS011;1445;52.600;13.328;2022-09-09T15:37:30;3.95;;;1.48;;
2874;SDS011;1445;52.600;13.328;2022-09-09T15:39:55;2.65;;;1.30;;
2874;SDS011;1445;52.600;13.328;2022-09-09T15:42:23;2.10;;;0.82;;
2874;SDS011;1445;52.600;13.328;2022-09-09T15:44:50;3.83;;;1.20;;
2874;SDS011;1445;52.600;13.328;2022-09-09T15:47:15;1.80;;;0.90;;
2874;SDS011;1445;52.600;13.328;2022-09-09T15:49:41;1.77;;;1.00;;
2874;SDS011;1445;52.600;13.328;2022-09-09T15:52:08;3.13;;;1.00;;
2874;SDS011;1445;52.600;13.328;2022-09-09T15:54:35;2.30;;;1.20;;
2874;SDS011;1445;52.600;13.328;2022-09-09T15:57:01;3.42;;;1.10;;
2874;SDS011;1445;52.600;13.328;2022-09-09T15:59:27;2.50;;;0.98;;
2874;SDS011;1445;52.600;13.328;2022-09-09T16:01:53;3.03;;;0.82;;
2874;SDS011;1445;52.600;13.328;2022-09-09T16:04:20;2.03;;;1.13;;
2874;SDS011;1445;52.600;13.328;2022-09-09T16:06:58;3.22;;;1.15;;
2874;SDS011;1445;52.600;13.328;2022-09-09T16:09:24;2.97;;;1.38;;
2874;SDS011;1445;52.600;13.328;2022-09-09T16:11:49;2.03;;;1.08;;
2874;SDS011;1445;52.600;13.328;2022-09-09T16:14:15;3.25;;;1.00;;
2874;SDS011;1445;52.600;13.328;2022-09-09T16:16:41;2.33;;;1.10;;
2874;SDS011;1445;52.600;13.328;2022-09-09T16:19:07;2.80;;;1.08;;
2874;SDS011;1445;52.600;13.328;2022-09-09T16:21:35;2.40;;;0.90;;
2874;SDS011;1445;52.600;13.328;2022-09-09T16:24:05;2.50;;;1.10;;
2874;SDS011;1445;52.600;13.328;2022-09-09T16:26:32;5.18;;;1.30;;
2874;SDS011;1445;52.600;13.328;2022-09-09T16:28:58;3.85;;;1.38;;
2874;SDS011;1445;52.600;13.328;2022-09-09T16:31:24;3.53;;;1.50;;
2874;SDS011;1445;52.600;13.328;2022-09-09T16:33:50;3.60;;;1.55;;
2874;SDS011;1445;52.600;13.328;2022-09-09T16:36:20;3.13;;;1.58;;
2874;SDS011;1445;52.600;13.328;2022-09-09T16:38:45;4.03;;;1.77;;
2874;SDS011;1445;52.600;13.328;2022-09-09T16:41:11;3.58;;;1.70;;
2874;SDS011;1445;52.600;13.328;2022-09-09T16:43:37;3.00;;;1.30;;
2874;SDS011;1445;52.600;13.328;2022-09-09T16:46:03;2.67;;;1.30;;
2874;SDS011;1445;52.600;13.328;2022-09-09T16:48:32;4.63;;;1.83;;
2874;SDS011;1445;52.600;13.328;2022-09-09T16:51:08;2.17;;;1.30;;
2874;SDS011;1445;52.600;13.328;2022-09-09T16:53:35;2.92;;;1.35;;
2874;SDS011;1445;52.600;13.328;2022-09-09T16:56:07;4.43;;;1.40;;
2874;SDS011;1445;52.600;13.328;2022-09-09T16:58:33;4.95;;;1.70;;